createdAt,value
2023-04-24T00:01:23.153Z,40.50
2023-04-24T00:03:51.766Z,40.50
2023-04-24T00:06:20.018Z,40.50
2023-04-24T00:08:48.114Z,40.50
2023-04-24T00:11:16.261Z,40.40
2023-04-24T00:13:44.552Z,40.50
2023-04-24T00:16:14.091Z,40.30
2023-04-24T00:18:42.498Z,40.30
2023-04-24T00:21:10.665Z,40.40
2023-04-24T00:23:38.905Z,40.40
2023-04-24T00:26:07.022Z,40.40
2023-04-24T00:28:35.271Z,40.40
2023-04-24T00:31:03.473Z,40.40
2023-04-24T00:33:32.948Z,40.40
2023-04-24T00:36:00.991Z,40.40
2023-04-24T00:38:29.089Z,40.30
2023-04-24T00:40:57.208Z,40.30
2023-04-24T00:43:25.709Z,40.30
2023-04-24T00:45:53.840Z,40.30
2023-04-24T00:48:23.386Z,40.30
2023-04-24T00:50:52.871Z,40.30
2023-04-24T00:53:21.131Z,40.30
2023-04-24T00:55:49.426Z,40.30
2023-04-24T00:58:17.573Z,40.30
2023-04-24T01:00:47.231Z,40.30
2023-04-24T01:03:15.938Z,40.30
2023-04-24T01:05:44.467Z,40.30
2023-04-24T01:08:13.968Z,40.40
2023-04-24T01:10:43.713Z,40.40
2023-04-24T01:13:12.400Z,40.40
2023-04-24T01:15:40.606Z,39.90
2023-04-24T01:18:08.769Z,40.60
2023-04-24T01:20:40.988Z,40.70
2023-04-24T01:23:11.492Z,40.80
2023-04-24T01:25:40.183Z,40.70
2023-04-24T01:28:08.400Z,40.70
2023-04-24T01:30:36.543Z,40.70
2023-04-24T01:33:04.852Z,40.70
2023-04-24T01:35:33.366Z,40.60
2023-04-24T01:38:01.538Z,40.70
2023-04-24T01:40:31.099Z,40.70
2023-04-24T01:43:00.240Z,40.70
2023-04-24T01:45:28.521Z,40.60
2023-04-24T01:47:56.768Z,40.70
2023-04-24T01:50:25.093Z,40.70
2023-04-24T01:52:53.269Z,40.60
2023-04-24T01:55:21.528Z,40.70
2023-04-24T01:57:52.076Z,40.70
2023-04-24T02:00:20.394Z,40.70
2023-04-24T02:02:48.983Z,40.70
2023-04-24T02:05:17.333Z,40.70
2023-04-24T02:07:45.604Z,40.70
2023-04-24T02:10:13.773Z,40.70
2023-04-24T02:12:41.920Z,40.70
2023-04-24T02:15:12.682Z,40.60
2023-04-24T02:17:41.173Z,40.70
2023-04-24T02:20:10.225Z,40.70
2023-04-24T02:22:38.389Z,41.30
2023-04-24T02:25:07.623Z,40.70
2023-04-24T02:27:35.803Z,40.60
2023-04-24T02:30:04.166Z,40.70
2023-04-24T02:32:34.981Z,40.70
2023-04-24T02:35:03.169Z,40.80
2023-04-24T02:37:31.344Z,40.80
2023-04-24T02:39:59.538Z,40.80
2023-04-24T02:42:27.988Z,40.80
2023-04-24T02:44:56.076Z,40.70
2023-04-24T02:47:24.249Z,40.70
2023-04-24T02:49:53.759Z,40.80
2023-04-24T02:52:21.943Z,40.80
2023-04-24T02:54:50.146Z,40.80
2023-04-24T02:57:18.282Z,40.70
2023-04-24T02:59:46.390Z,40.70
2023-04-24T03:02:14.605Z,40.70
2023-04-24T03:04:44.139Z,40.80
2023-04-24T03:07:13.773Z,40.80
2023-04-24T03:09:42.008Z,40.80
2023-04-24T03:12:10.294Z,40.80
2023-04-24T03:14:38.425Z,40.70
2023-04-24T03:17:06.592Z,40.80
2023-04-24T03:19:34.698Z,40.70
2023-04-24T03:22:04.701Z,40.80
2023-04-24T03:24:34.213Z,40.70
2023-04-24T03:27:02.353Z,40.80
2023-04-24T03:29:30.525Z,40.80
2023-04-24T03:31:58.716Z,40.80
2023-04-24T03:34:26.896Z,40.80
2023-04-24T03:36:55.068Z,40.70
2023-04-24T03:39:23.167Z,40.70
2023-04-24T03:41:52.681Z,40.70
2023-04-24T03:44:20.811Z,40.70
2023-04-24T03:46:48.944Z,40.70
2023-04-24T03:49:17.074Z,40.70
2023-04-24T03:51:45.253Z,40.70
2023-04-24T03:54:13.424Z,40.80
2023-04-24T03:56:41.560Z,40.70
2023-04-24T03:59:11.113Z,40.70
2023-04-24T04:01:42.849Z,40.70
2023-04-24T04:04:12.211Z,40.70
2023-04-24T04:06:40.601Z,40.70
2023-04-24T04:09:09.671Z,40.60
2023-04-24T04:11:37.852Z,40.70
2023-04-24T04:14:06.330Z,40.60
2023-04-24T04:16:37.374Z,40.60
2023-04-24T04:19:06.492Z,40.60
2023-04-24T04:21:34.636Z,40.50
2023-04-24T04:24:02.735Z,40.50
2023-04-24T04:26:33.643Z,40.60
2023-04-24T04:29:03.057Z,39.10
2023-04-24T04:31:31.760Z,39.50
2023-04-24T04:34:02.610Z,41.00
2023-04-24T04:36:31.530Z,41.00
2023-04-24T04:39:00.356Z,41.00
2023-04-24T04:41:28.470Z,41.00
2023-04-24T04:43:59.566Z,40.80
2023-04-24T04:46:28.141Z,40.80
2023-04-24T04:48:57.689Z,40.80
2023-04-24T04:51:27.217Z,40.80
2023-04-24T04:53:55.316Z,40.80
2023-04-24T04:56:23.624Z,40.70
2023-04-24T04:58:51.762Z,40.70
2023-04-24T05:01:19.858Z,40.70
2023-04-24T05:03:48.172Z,40.60
2023-04-24T05:06:16.525Z,40.60
2023-04-24T05:08:46.137Z,40.50
2023-04-24T05:11:14.348Z,40.50
2023-04-24T05:13:42.479Z,40.30
2023-04-24T05:16:10.947Z,40.50
2023-04-24T05:18:39.152Z,40.50
2023-04-24T05:21:07.340Z,40.50
2023-04-24T05:23:35.492Z,40.30
2023-04-24T05:26:07.431Z,40.30
2023-04-24T05:28:37.682Z,40.10
2023-04-24T05:31:06.308Z,40.30
2023-04-24T05:33:34.537Z,40.20
2023-04-24T05:36:02.709Z,39.90
2023-04-24T05:38:30.878Z,39.90
2023-04-24T05:40:58.980Z,40.40
2023-04-24T05:43:28.509Z,39.70
2023-04-24T05:45:56.650Z,39.80
2023-04-24T05:48:24.960Z,39.80
2023-04-24T05:50:53.617Z,39.60
2023-04-24T05:53:21.822Z,39.50
2023-04-24T05:55:50.102Z,39.60
2023-04-24T05:58:18.280Z,39.70
2023-04-24T06:00:48.062Z,39.40
2023-04-24T06:03:16.814Z,39.60
2023-04-24T06:05:45.133Z,39.60
2023-04-24T06:08:13.581Z,39.30
2023-04-24T06:10:42.272Z,39.40
2023-04-24T06:13:10.871Z,39.30
2023-04-24T06:15:39.294Z,39.20
2023-04-24T06:18:11.126Z,39.00
2023-04-24T06:20:39.353Z,38.90
2023-04-24T06:23:07.534Z,39.30
2023-04-24T06:25:35.651Z,40.00
2023-04-24T06:28:03.807Z,40.40
2023-04-24T06:30:31.990Z,40.50
2023-04-24T06:33:06.174Z,40.20
2023-04-24T06:35:48.681Z,40.30
2023-04-24T06:38:17.641Z,40.30
2023-04-24T06:40:45.936Z,40.20
2023-04-24T06:43:14.060Z,40.20
2023-04-24T06:45:42.242Z,40.30
2023-04-24T06:48:10.543Z,40.40
2023-04-24T06:50:38.715Z,40.40
2023-04-24T06:53:08.222Z,40.20
2023-04-24T06:55:37.613Z,40.00
2023-04-24T06:58:07.092Z,40.00
2023-04-24T07:00:35.563Z,39.80
2023-04-24T07:03:03.850Z,39.80
2023-04-24T07:05:32.039Z,39.50
2023-04-24T07:08:00.376Z,39.40
2023-04-24T07:10:30.271Z,39.30
2023-04-24T07:12:58.369Z,39.30
2023-04-24T07:15:26.556Z,39.40
2023-04-24T07:17:54.815Z,39.00
2023-04-24T07:20:23.055Z,39.20
2023-04-24T07:22:52.693Z,38.90
2023-04-24T07:25:20.991Z,38.90
2023-04-24T07:27:50.686Z,38.80
2023-04-24T07:30:18.872Z,38.50
2023-04-24T07:32:47.055Z,38.50
2023-04-24T07:35:15.169Z,37.80
2023-04-24T07:37:46.742Z,38.10
2023-04-24T07:40:14.971Z,37.30
2023-04-24T07:42:43.193Z,36.90
2023-04-24T07:45:12.727Z,37.20
2023-04-24T07:47:41.012Z,36.80
2023-04-24T07:50:09.397Z,37.30
2023-04-24T07:52:37.716Z,37.40
2023-04-24T07:55:06.523Z,37.60
2023-04-24T07:57:34.696Z,37.60
2023-04-24T08:00:02.789Z,37.60
2023-04-24T08:02:32.643Z,37.60
2023-04-24T08:05:00.984Z,37.80
2023-04-24T08:07:29.278Z,37.80
2023-04-24T08:09:57.399Z,38.00
2023-04-24T08:12:25.538Z,38.40
2023-04-24T08:14:53.624Z,38.30
2023-04-24T08:17:21.751Z,38.40
2023-04-24T08:19:52.226Z,38.40
2023-04-24T08:22:20.352Z,38.30
2023-04-24T08:24:48.467Z,38.10
2023-04-24T08:27:16.603Z,38.20
2023-04-24T08:29:44.959Z,38.20
2023-04-24T08:32:13.226Z,38.30
2023-04-24T08:34:41.326Z,38.10
2023-04-24T08:37:10.905Z,38.10
2023-04-24T08:39:39.324Z,38.10
2023-04-24T08:42:09.285Z,38.10
2023-04-24T08:44:38.388Z,38.20
2023-04-24T08:47:07.051Z,38.20
2023-04-24T08:49:37.922Z,38.20
2023-04-24T08:52:07.709Z,38.20
2023-04-24T08:54:39.077Z,38.20
2023-04-24T08:57:12.616Z,37.70
2023-04-24T08:59:41.424Z,37.70
2023-04-24T09:02:13.112Z,37.30
2023-04-24T09:04:43.594Z,36.40
2023-04-24T09:07:14.321Z,36.00
2023-04-24T09:09:44.621Z,36.60
2023-04-24T09:12:13.739Z,36.70
2023-04-24T09:14:46.017Z,36.90
2023-04-24T09:17:14.637Z,37.30
2023-04-24T09:19:43.017Z,37.60
2023-04-24T09:22:12.406Z,36.60
2023-04-24T09:24:41.176Z,36.90
2023-04-24T09:27:14.106Z,36.80
2023-04-24T09:29:55.193Z,36.00
2023-04-24T09:32:26.172Z,35.50
2023-04-24T09:35:09.004Z,35.80
2023-04-24T09:37:42.594Z,36.70
2023-04-24T09:40:18.022Z,37.40
2023-04-24T09:42:48.868Z,37.40
2023-04-24T09:45:17.036Z,37.30
2023-04-24T09:47:45.281Z,37.60
2023-04-24T09:50:15.697Z,37.70
2023-04-24T09:52:46.696Z,37.70
2023-04-24T09:55:21.119Z,37.70
2023-04-24T09:57:55.586Z,37.70
2023-04-24T10:00:27.851Z,37.80
2023-04-24T10:03:00.609Z,37.80
2023-04-24T10:05:33.501Z,37.40
2023-04-24T10:08:06.934Z,36.70
2023-04-24T10:10:40.510Z,36.70
2023-04-24T10:13:11.214Z,37.00
2023-04-24T10:15:39.459Z,37.20
2023-04-24T10:18:08.434Z,37.30
2023-04-24T10:20:38.092Z,37.40
2023-04-24T10:23:06.650Z,37.40
2023-04-24T10:25:36.342Z,37.40
2023-04-24T10:28:05.327Z,37.40
2023-04-24T10:30:37.150Z,37.60
2023-04-24T10:33:06.597Z,37.80
2023-04-24T10:35:36.794Z,37.90
2023-04-24T10:38:08.615Z,38.00
2023-04-24T10:40:38.186Z,38.10
2023-04-24T10:43:09.079Z,37.90
2023-04-24T10:45:39.576Z,37.70
2023-04-24T10:48:12.255Z,37.40
2023-04-24T10:50:48.439Z,37.30
2023-04-24T10:53:19.498Z,37.20
2023-04-24T10:55:49.817Z,37.50
2023-04-24T10:58:18.874Z,37.50
2023-04-24T11:00:58.718Z,37.60
2023-04-24T11:03:27.863Z,38.10
2023-04-24T11:05:59.972Z,37.80
2023-04-24T11:08:33.585Z,37.60
2023-04-24T11:11:04.880Z,37.50
2023-04-24T11:14:08.911Z,37.50
2023-04-24T11:16:45.386Z,37.30
2023-04-24T11:19:23.101Z,37.40
2023-04-24T11:21:57.825Z,37.40
2023-04-24T11:24:40.874Z,37.50
2023-04-24T11:27:16.188Z,37.70
2023-04-24T11:29:46.263Z,37.70
2023-04-24T11:32:29.955Z,38.00
2023-04-24T11:35:00.518Z,38.30
2023-04-24T11:37:30.182Z,38.40
2023-04-24T11:40:00.990Z,38.20
2023-04-24T11:42:30.591Z,38.20
2023-04-24T11:44:58.802Z,38.10
2023-04-24T11:50:01.645Z,37.60
2023-04-24T11:52:31.271Z,38.00
2023-04-24T11:54:59.647Z,37.90
2023-04-24T11:57:29.993Z,37.60
2023-04-24T11:59:58.096Z,38.40
2023-04-24T12:04:57.310Z,38.40
2023-04-24T12:07:26.565Z,39.00
2023-04-24T12:10:00.629Z,39.00
2023-04-24T12:12:29.628Z,39.00
2023-04-24T12:14:59.288Z,38.90
2023-04-24T12:17:29.346Z,39.00
2023-04-24T12:20:03.303Z,39.30
2023-04-24T12:22:45.765Z,39.60
2023-04-24T12:25:14.455Z,39.50
2023-04-24T12:27:42.810Z,39.60
2023-04-24T12:30:14.161Z,39.40
2023-04-24T12:32:46.255Z,39.40
2023-04-24T12:35:20.968Z,39.40
2023-04-24T12:37:49.251Z,39.40
2023-04-24T12:40:17.634Z,39.50
2023-04-24T12:42:48.255Z,39.30
2023-04-24T12:45:17.157Z,39.30
2023-04-24T12:47:46.363Z,39.10
2023-04-24T12:50:17.637Z,39.30
2023-04-24T12:52:46.567Z,39.40
2023-04-24T12:55:14.689Z,39.10
2023-04-24T12:57:43.091Z,38.90
2023-04-24T13:00:12.101Z,38.70
2023-04-24T13:02:40.485Z,38.10
2023-04-24T13:05:09.300Z,38.70
2023-04-24T13:07:38.743Z,38.70
2023-04-24T13:10:08.141Z,38.80
2023-04-24T13:12:37.529Z,38.70
2023-04-24T13:15:06.491Z,38.50
2023-04-24T13:17:35.163Z,38.60
2023-04-24T13:20:03.770Z,38.80
2023-04-24T13:22:31.858Z,39.40
2023-04-24T13:25:02.484Z,38.40
2023-04-24T13:27:30.559Z,38.10
2023-04-24T13:29:58.613Z,37.90
2023-04-24T13:34:55.966Z,37.20
2023-04-24T13:37:24.264Z,37.80
2023-04-24T13:39:52.888Z,37.90
2023-04-24T13:42:22.374Z,37.90
2023-04-24T13:44:52.062Z,38.10
2023-04-24T13:47:20.065Z,38.30
2023-04-24T13:49:48.174Z,38.90
2023-04-24T13:52:16.723Z,63.70
2023-04-24T13:54:44.770Z,38.90
2023-04-24T13:57:13.566Z,39.10
2023-04-24T13:59:43.005Z,38.60
2023-04-24T14:02:11.219Z,38.90
2023-04-24T14:04:39.698Z,52.30
2023-04-24T14:09:37.173Z,38.50
2023-04-24T14:12:05.507Z,39.30
2023-04-24T14:14:33.626Z,39.30
2023-04-24T14:17:03.204Z,39.10
2023-04-24T14:19:31.308Z,39.10
2023-04-24T14:21:59.464Z,38.80
2023-04-24T14:24:27.548Z,38.60
2023-04-24T14:26:55.718Z,38.40
2023-04-24T14:29:23.830Z,38.40
2023-04-24T14:31:52.012Z,37.90
2023-04-24T14:34:22.114Z,38.50
2023-04-24T14:36:50.351Z,38.50
2023-04-24T14:39:18.416Z,38.60
2023-04-24T14:41:46.758Z,37.80
2023-04-24T14:44:14.890Z,38.20
2023-04-24T14:46:43.650Z,38.40
2023-04-24T14:49:13.447Z,38.50
2023-04-24T14:51:43.682Z,38.60
2023-04-24T14:54:11.832Z,38.70
2023-04-24T14:56:41.846Z,38.90
2023-04-24T15:01:38.440Z,39.80
2023-04-24T15:04:07.294Z,37.90
2023-04-24T15:06:35.706Z,72.40
2023-04-24T15:09:05.304Z,74.90
2023-04-24T15:18:58.730Z,48.80
2023-04-24T15:21:26.959Z,50.20
2023-04-24T15:31:23.941Z,74.80
2023-04-24T15:33:52.102Z,83.70
2023-04-24T15:41:18.874Z,60.30
2023-04-24T15:43:48.570Z,60.80
2023-04-24T15:46:17.231Z,62.00
2023-04-24T15:48:45.549Z,63.20
2023-04-24T15:51:13.610Z,64.00
2023-04-24T15:53:41.698Z,64.90
2023-04-24T15:56:11.399Z,66.10
2023-04-24T15:58:39.676Z,58.20
2023-04-24T16:01:09.207Z,58.60
2023-04-24T16:03:37.612Z,58.00
2023-04-24T16:06:06.304Z,57.60
2023-04-24T16:08:34.432Z,56.50
2023-04-24T16:11:02.593Z,55.20
2023-04-24T16:13:31.987Z,55.20
2023-04-24T16:16:00.152Z,54.10
2023-04-24T16:18:29.717Z,54.30
2023-04-24T16:20:58.357Z,54.40
2023-04-24T16:23:26.544Z,53.60
2023-04-24T16:25:54.651Z,53.20
2023-04-24T16:28:24.011Z,52.30
2023-04-24T16:30:52.113Z,50.60
2023-04-24T16:33:20.264Z,48.10
2023-04-24T16:35:49.738Z,45.10
2023-04-24T16:38:17.859Z,46.40
2023-04-24T16:40:45.983Z,48.00
2023-04-24T16:43:14.156Z,47.40
2023-04-24T16:45:42.247Z,47.10
2023-04-24T16:48:11.298Z,46.20
2023-04-24T16:50:39.657Z,46.30
2023-04-24T16:53:09.161Z,45.60
2023-04-24T16:55:37.239Z,45.80
2023-04-24T16:58:05.384Z,45.40
2023-04-24T17:00:33.463Z,45.60
2023-04-24T17:03:01.842Z,45.40
2023-04-24T17:05:30.081Z,45.10
2023-04-24T17:07:58.200Z,45.10
2023-04-24T17:10:27.686Z,45.20
2023-04-24T17:12:56.519Z,45.20
2023-04-24T17:15:24.641Z,45.40
2023-04-24T17:17:53.157Z,45.30
2023-04-24T17:20:23.358Z,45.30
2023-04-24T17:22:52.580Z,45.20
2023-04-24T17:25:21.216Z,45.20
2023-04-24T17:27:50.800Z,45.30
2023-04-24T17:30:18.987Z,45.30
2023-04-24T17:32:47.296Z,44.90
2023-04-24T17:35:15.467Z,45.00
2023-04-24T17:37:43.646Z,44.90
2023-04-24T17:40:13.004Z,44.60
2023-04-24T17:42:42.462Z,44.50
2023-04-24T17:45:13.268Z,44.60
2023-04-24T17:47:42.175Z,44.70
2023-04-24T17:50:10.822Z,44.50
2023-04-24T17:52:38.954Z,44.60
2023-04-24T17:55:07.898Z,44.40
2023-04-24T17:57:36.055Z,44.60
2023-04-24T18:00:04.949Z,44.40
2023-04-24T18:02:34.599Z,44.70
2023-04-24T18:05:02.807Z,44.60
2023-04-24T18:07:30.896Z,44.60
2023-04-24T18:09:58.983Z,44.60
2023-04-24T18:12:27.415Z,44.70
2023-04-24T18:15:12.476Z,44.60
2023-04-24T18:17:43.798Z,44.60
2023-04-24T18:20:12.455Z,44.60
2023-04-24T18:22:41.320Z,44.70
2023-04-24T18:25:10.787Z,44.60
2023-04-24T18:27:39.632Z,44.60
2023-04-24T18:30:10.067Z,44.60
2023-04-24T18:32:39.634Z,44.60
2023-04-24T18:35:09.973Z,45.20
2023-04-24T18:37:38.103Z,44.60
2023-04-24T18:40:07.105Z,44.60
2023-04-24T18:42:35.266Z,44.70
2023-04-24T18:45:04.879Z,44.60
2023-04-24T18:47:33.021Z,44.60
2023-04-24T18:50:01.127Z,44.60
2023-04-24T18:52:31.715Z,44.60
2023-04-24T18:55:01.462Z,44.60
2023-04-24T18:57:29.882Z,44.50
2023-04-24T18:59:57.986Z,44.60
2023-04-24T19:02:26.258Z,44.60
2023-04-24T19:04:54.455Z,44.70
2023-04-24T19:07:22.562Z,44.50
2023-04-24T19:09:51.996Z,44.60
2023-04-24T19:12:22.207Z,44.50
2023-04-24T19:14:51.663Z,44.60
2023-04-24T19:17:23.583Z,44.60
2023-04-24T19:19:52.327Z,44.60
2023-04-24T19:22:21.040Z,44.60
2023-04-24T19:24:49.155Z,44.60
2023-04-24T19:27:18.623Z,44.60
2023-04-24T19:29:46.730Z,44.50
2023-04-24T19:32:15.754Z,44.50
2023-04-24T19:34:43.912Z,44.50
2023-04-24T19:37:12.156Z,44.50
2023-04-24T19:39:40.271Z,44.50
2023-04-24T19:42:08.415Z,44.40
2023-04-24T19:44:37.896Z,44.50
2023-04-24T19:47:06.127Z,44.40
2023-04-24T19:49:34.233Z,44.30
2023-04-24T19:52:02.358Z,44.30
2023-04-24T19:54:30.622Z,44.30
2023-04-24T19:56:58.744Z,44.40
2023-04-24T19:59:26.793Z,44.40
2023-04-24T20:01:57.305Z,44.30
2023-04-24T20:04:31.181Z,44.40
2023-04-24T20:06:59.534Z,44.30
2023-04-24T20:09:32.457Z,44.30
2023-04-24T20:12:03.279Z,44.20
2023-04-24T20:14:31.675Z,44.20
2023-04-24T20:17:01.192Z,44.20
2023-04-24T20:19:29.347Z,44.30
2023-04-24T20:21:57.444Z,44.20
2023-04-24T20:24:25.651Z,44.30
2023-04-24T20:26:53.759Z,44.20
2023-04-24T20:29:21.820Z,44.20
2023-04-24T20:31:50.049Z,44.20
2023-04-24T20:34:19.562Z,44.20
2023-04-24T20:36:49.753Z,44.20
2023-04-24T20:39:18.071Z,44.10
2023-04-24T20:41:46.318Z,44.10
2023-04-24T20:44:14.754Z,44.10
2023-04-24T20:46:42.944Z,44.10
2023-04-24T20:49:11.106Z,44.20
2023-04-24T20:51:40.526Z,44.20
2023-04-24T20:54:08.603Z,44.10
2023-04-24T20:56:36.702Z,44.10
2023-04-24T20:59:04.811Z,44.10
2023-04-24T21:01:32.921Z,44.10
2023-04-24T21:04:01.177Z,44.00
2023-04-24T21:06:29.671Z,44.00
2023-04-24T21:08:59.134Z,44.10
2023-04-24T21:11:27.184Z,44.10
2023-04-24T21:13:55.288Z,44.10
2023-04-24T21:16:23.454Z,44.10
2023-04-24T21:18:51.603Z,43.80
2023-04-24T21:21:19.655Z,59.00
2023-04-24T21:23:47.844Z,44.60
2023-04-24T21:26:17.498Z,44.90
2023-04-24T21:28:45.692Z,45.90
2023-04-24T21:31:13.899Z,46.00
2023-04-24T21:33:42.011Z,46.10
2023-04-24T21:36:10.456Z,46.70
2023-04-24T21:38:39.940Z,46.50
2023-04-24T21:41:08.026Z,46.60
2023-04-24T21:43:44.517Z,46.70
2023-04-24T21:46:18.864Z,46.80
2023-04-24T21:48:47.027Z,46.90
2023-04-24T21:51:16.609Z,47.00
2023-04-24T21:53:45.084Z,47.20
2023-04-24T21:56:13.466Z,47.30
2023-04-24T21:58:43.333Z,47.30
2023-04-24T22:01:12.057Z,47.30
2023-04-24T22:03:40.508Z,47.30
2023-04-24T22:06:08.875Z,47.30
2023-04-24T22:08:36.978Z,45.80
2023-04-24T22:11:07.185Z,45.80
2023-04-24T22:13:39.192Z,46.70
2023-04-24T22:16:08.913Z,46.90
2023-04-24T22:18:46.648Z,46.80
2023-04-24T22:21:15.407Z,46.80
2023-04-24T22:23:43.491Z,46.70
2023-04-24T22:26:11.547Z,46.80
2023-04-24T22:28:39.613Z,46.80
2023-04-24T22:31:09.393Z,46.70
2023-04-24T22:33:37.556Z,46.70
2023-04-24T22:36:06.635Z,46.70
2023-04-24T22:38:34.717Z,46.70
2023-04-24T22:41:03.015Z,46.70
2023-04-24T22:43:31.845Z,46.70
2023-04-24T22:45:59.949Z,46.60
2023-04-24T22:48:29.460Z,46.60
2023-04-24T22:50:57.533Z,46.50
2023-04-24T22:53:25.685Z,46.50
2023-04-24T22:55:53.792Z,46.50
2023-04-24T22:58:21.902Z,46.50
2023-04-24T23:00:50.246Z,47.20
2023-04-24T23:03:18.592Z,46.40
2023-04-24T23:05:48.377Z,46.40
2023-04-24T23:08:16.449Z,46.40
2023-04-24T23:10:44.587Z,46.40
2023-04-24T23:13:12.647Z,46.30
2023-04-24T23:15:40.790Z,46.30
2023-04-24T23:18:08.856Z,46.30
2023-04-24T23:20:38.566Z,46.20
2023-04-24T23:23:08.250Z,46.20
2023-04-24T23:25:36.336Z,46.20
2023-04-24T23:28:04.748Z,46.10
2023-04-24T23:30:32.990Z,46.00
2023-04-24T23:33:01.105Z,46.00
2023-04-24T23:35:29.294Z,45.90
2023-04-24T23:37:57.417Z,46.50
2023-04-24T23:40:26.896Z,45.90
2023-04-24T23:43:06.278Z,45.90
2023-04-24T23:45:37.043Z,46.00
2023-04-24T23:48:05.935Z,45.80
2023-04-24T23:50:34.381Z,45.80
2023-04-24T23:53:02.580Z,45.80
2023-04-24T23:55:32.098Z,45.80
2023-04-24T23:58:00.181Z,45.70
